KTSP/TSP METAR and TAF weather

Enter ICAO airport designator
Station Type Date Time Source
KTSP METAR 2022/06/30 12:55 UTC NOAA

KTSP 301255Z AUTO 30006KT 10SM CLR 19/01 A3016 RMK AO2


Station Type Date Time Source
KTSP Decoded METAR 2022/06/30 12:55 UTC NOAA

Station name not available
Jun 30, 2022 - 08:55 AM EDT / 2022.06.30 1255 UTC
Wind: from the WNW (300 degrees) at 7 MPH (6 KT):0
Visibility: 10 mile(s):0
Sky conditions: clear
Temperature: 66 F (19 C)
Dew Point: 33 F (1 C)
Relative Humidity: 29%
Pressure (altimeter): 30.16 in. Hg (1021 hPa)
ob: KTSP 301255Z AUTO 30006KT 10SM CLR 19/01 A3016 RMK AO2
cycle: 13

Station Type Date Time Source
KTSP TAF UTC NOAA

Error!

Example: see airport list